sensor_id;sensor_type;location;lat;lon;timestamp;pressure;altitude;pressure_sealevel;temperature;humidity
20971;BME280;10644;48.834;10.088;2024-02-23T00:00:08;94708.81;;;9.43;66.39
20971;BME280;10644;48.834;10.088;2024-02-23T00:02:35;94718.88;;;9.35;66.43
20971;BME280;10644;48.834;10.088;2024-02-23T00:05:01;94740.34;;;9.32;65.72
20971;BME280;10644;48.834;10.088;2024-02-23T00:07:26;94755.63;;;9.23;66.53
20971;BME280;10644;48.834;10.088;2024-02-23T00:09:51;94748.84;;;9.22;66.46
20971;BME280;10644;48.834;10.088;2024-02-23T00:12:17;94752.06;;;9.14;66.67
20971;BME280;10644;48.834;10.088;2024-02-23T00:14:42;94751.47;;;9.42;66.06
20971;BME280;10644;48.834;10.088;2024-02-23T00:17:08;94777.13;;;9.09;67.41
20971;BME280;10644;48.834;10.088;2024-02-23T00:19:34;94775.84;;;9.04;67.89
20971;BME280;10644;48.834;10.088;2024-02-23T00:22:01;94785.69;;;9.08;67.21
20971;BME280;10644;48.834;10.088;2024-02-23T00:24:27;94795.22;;;9.06;66.82
20971;BME280;10644;48.834;10.088;2024-02-23T00:26:53;94771.16;;;8.88;67.11
20971;BME280;10644;48.834;10.088;2024-02-23T00:29:18;94763.25;;;8.80;65.98
20971;BME280;10644;48.834;10.088;2024-02-23T00:31:44;94769.06;;;8.93;65.96
20971;BME280;10644;48.834;10.088;2024-02-23T00:34:12;94770.16;;;9.11;65.69
20971;BME280;10644;48.834;10.088;2024-02-23T00:36:41;94769.00;;;9.15;65.71
20971;BME280;10644;48.834;10.088;2024-02-23T00:39:07;94763.34;;;9.32;66.02
20971;BME280;10644;48.834;10.088;2024-02-23T00:41:35;94755.19;;;9.38;65.71
20971;BME280;10644;48.834;10.088;2024-02-23T00:44:02;94746.19;;;9.23;65.67
20971;BME280;10644;48.834;10.088;2024-02-23T00:46:27;94771.31;;;9.39;66.20
20971;BME280;10644;48.834;10.088;2024-02-23T00:48:53;94776.06;;;9.43;65.54
20971;BME280;10644;48.834;10.088;2024-02-23T00:51:18;94764.91;;;9.44;65.41
20971;BME280;10644;48.834;10.088;2024-02-23T00:53:43;94789.06;;;9.40;65.82
20971;BME280;10644;48.834;10.088;2024-02-23T00:56:09;94783.97;;;9.40;64.87
20971;BME280;10644;48.834;10.088;2024-02-23T00:58:34;94771.41;;;9.48;63.67
20971;BME280;10644;48.834;10.088;2024-02-23T01:00:59;94791.22;;;9.56;63.71
20971;BME280;10644;48.834;10.088;2024-02-23T01:03:25;94778.19;;;9.59;63.30
20971;BME280;10644;48.834;10.088;2024-02-23T01:05:50;94778.75;;;9.62;63.14
20971;BME280;10644;48.834;10.088;2024-02-23T01:08:19;94787.34;;;9.61;63.22
20971;BME280;10644;48.834;10.088;2024-02-23T01:10:44;94777.25;;;9.39;nan
20971;BME280;10644;48.834;10.088;2024-02-23T01:13:10;94790.19;;;9.47;62.90
20971;BME280;10644;48.834;10.088;2024-02-23T01:15:35;94792.91;;;9.46;62.73
20971;BME280;10644;48.834;10.088;2024-02-23T01:18:01;94776.41;;;9.39;62.91
20971;BME280;10644;48.834;10.088;2024-02-23T01:20:26;94795.63;;;9.33;63.10
20971;BME280;10644;48.834;10.088;2024-02-23T01:22:52;94780.81;;;9.48;62.76
20971;BME280;10644;48.834;10.088;2024-02-23T01:25:17;94773.25;;;9.46;62.27
20971;BME280;10644;48.834;10.088;2024-02-23T01:27:43;94792.47;;;9.41;62.82
20971;BME280;10644;48.834;10.088;2024-02-23T01:30:10;94781.28;;;9.42;62.53
20971;BME280;10644;48.834;10.088;2024-02-23T01:32:35;94792.41;;;9.20;63.80
20971;BME280;10644;48.834;10.088;2024-02-23T01:35:04;94794.69;;;9.34;62.71
20971;BME280;10644;48.834;10.088;2024-02-23T01:37:29;94783.25;;;9.49;62.90
20971;BME280;10644;48.834;10.088;2024-02-23T01:39:54;94779.25;;;9.56;62.19
20971;BME280;10644;48.834;10.088;2024-02-23T01:42:20;94765.53;;;9.57;62.63
20971;BME280;10644;48.834;10.088;2024-02-23T01:44:45;94779.06;;;9.48;62.22
20971;BME280;10644;48.834;10.088;2024-02-23T01:47:11;94775.06;;;9.35;62.85
20971;BME280;10644;48.834;10.088;2024-02-23T01:49:36;94775.53;;;9.60;62.38
20971;BME280;10644;48.834;10.088;2024-02-23T01:52:02;94777.53;;;9.77;62.16
20971;BME280;10644;48.834;10.088;2024-02-23T01:54:29;94781.34;;;9.92;61.67
20971;BME280;10644;48.834;10.088;2024-02-23T01:56:58;94788.69;;;9.76;61.92
20971;BME280;10644;48.834;10.088;2024-02-23T01:59:25;94799.19;;;9.62;62.36
20971;BME280;10644;48.834;10.088;2024-02-23T02:01:50;94797.09;;;9.67;62.72
20971;BME280;10644;48.834;10.088;2024-02-23T02:04:16;94799.38;;;9.70;61.88
20971;BME280;10644;48.834;10.088;2024-02-23T02:06:41;94793.91;;;9.75;61.96
20971;BME280;10644;48.834;10.088;2024-02-23T02:09:07;94802.19;;;9.67;61.97
20971;BME280;10644;48.834;10.088;2024-02-23T02:11:32;94810.16;;;9.53;61.82
20971;BME280;10644;48.834;10.088;2024-02-23T02:13:58;94821.13;;;9.44;61.62
20971;BME280;10644;48.834;10.088;2024-02-23T02:16:23;94810.00;;;9.34;61.23
20971;BME280;10644;48.834;10.088;2024-02-23T02:18:48;94799.59;;;9.26;61.13
20971;BME280;10644;48.834;10.088;2024-02-23T02:21:14;94799.00;;;9.34;61.07
20971;BME280;10644;48.834;10.088;2024-02-23T02:23:39;94815.03;;;9.25;60.89
20971;BME280;10644;48.834;10.088;2024-02-23T02:26:07;94798.88;;;9.24;60.75
20971;BME280;10644;48.834;10.088;2024-02-23T02:28:32;94797.75;;;9.17;60.61
20971;BME280;10644;48.834;10.088;2024-02-23T02:30:58;94808.38;;;9.33;61.10
20971;BME280;10644;48.834;10.088;2024-02-23T02:33:23;94801.69;;;9.21;60.85
20971;BME280;10644;48.834;10.088;2024-02-23T02:35:49;94810.97;;;9.22;60.84
20971;BME280;10644;48.834;10.088;2024-02-23T02:38:17;94805.19;;;9.20;60.38
20971;BME280;10644;48.834;10.088;2024-02-23T02:40:43;94799.72;;;9.25;60.10
20971;BME280;10644;48.834;10.088;2024-02-23T02:43:08;94788.59;;;9.15;60.31
20971;BME280;10644;48.834;10.088;2024-02-23T02:45:35;94789.34;;;9.37;60.98
20971;BME280;10644;48.834;10.088;2024-02-23T02:48:01;94795.72;;;9.32;60.14
20971;BME280;10644;48.834;10.088;2024-02-23T02:50:27;94781.31;;;9.10;60.72
20971;BME280;10644;48.834;10.088;2024-02-23T02:52:52;94797.34;;;9.01;61.19
20971;BME280;10644;48.834;10.088;2024-02-23T02:55:18;94787.91;;;9.13;60.66
20971;BME280;10644;48.834;10.088;2024-02-23T02:57:44;94803.31;;;9.22;60.47
20971;BME280;10644;48.834;10.088;2024-02-23T03:00:10;94811.88;;;9.32;60.35
20971;BME280;10644;48.834;10.088;2024-02-23T03:02:38;94821.84;;;9.35;60.83
20971;BME280;10644;48.834;10.088;2024-02-23T03:05:04;94816.00;;;9.13;60.56
20971;BME280;10644;48.834;10.088;2024-02-23T03:07:30;94811.38;;;9.07;60.99
20971;BME280;10644;48.834;10.088;2024-02-23T03:09:58;94805.19;;;9.20;60.94
20971;BME280;10644;48.834;10.088;2024-02-23T03:12:23;94801.00;;;9.19;60.61
20971;BME280;10644;48.834;10.088;2024-02-23T03:14:51;94806.00;;;9.10;60.66
20971;BME280;10644;48.834;10.088;2024-02-23T03:17:21;94804.25;;;9.21;60.54
20971;BME280;10644;48.834;10.088;2024-02-23T03:19:46;94805.16;;;9.31;59.89
20971;BME280;10644;48.834;10.088;2024-02-23T03:22:11;94817.06;;;9.10;60.74
20971;BME280;10644;48.834;10.088;2024-02-23T03:24:39;94820.59;;;8.87;60.45
20971;BME280;10644;48.834;10.088;2024-02-23T03:27:05;94801.31;;;8.94;60.66
20971;BME280;10644;48.834;10.088;2024-02-23T03:29:30;94800.25;;;8.97;60.34
20971;BME280;10644;48.834;10.088;2024-02-23T03:31:56;94817.75;;;9.01;60.25
20971;BME280;10644;48.834;10.088;2024-02-23T03:34:21;94811.84;;;9.01;60.00
20971;BME280;10644;48.834;10.088;2024-02-23T03:36:47;94811.16;;;8.88;60.56
20971;BME280;10644;48.834;10.088;2024-02-23T03:39:13;94816.84;;;8.91;61.12
20971;BME280;10644;48.834;10.088;2024-02-23T03:41:38;94811.53;;;8.83;60.82
20971;BME280;10644;48.834;10.088;2024-02-23T03:44:03;94834.69;;;9.02;60.75
20971;BME280;10644;48.834;10.088;2024-02-23T03:46:29;94817.94;;;8.89;60.31
20971;BME280;10644;48.834;10.088;2024-02-23T03:48:54;94815.91;;;9.03;60.51
20971;BME280;10644;48.834;10.088;2024-02-23T03:51:25;94813.88;;;8.86;60.10
20971;BME280;10644;48.834;10.088;2024-02-23T03:53:50;94815.25;;;8.79;60.42
20971;BME280;10644;48.834;10.088;2024-02-23T03:56:16;94836.59;;;8.89;60.31
20971;BME280;10644;48.834;10.088;2024-02-23T03:58:41;94835.44;;;8.93;60.06
20971;BME280;10644;48.834;10.088;2024-02-23T04:01:07;94842.75;;;8.87;60.58
20971;BME280;10644;48.834;10.088;2024-02-23T04:03:32;94837.03;;;8.94;60.51
20971;BME280;10644;48.834;10.088;2024-02-23T04:05:58;94845.84;;;8.90;60.58
20971;BME280;10644;48.834;10.088;2024-02-23T04:08:23;94860.00;;;9.05;60.39
20971;BME280;10644;48.834;10.088;2024-02-23T04:10:48;94877.59;;;9.19;60.02
20971;BME280;10644;48.834;10.088;2024-02-23T04:13:16;94856.47;;;9.28;60.01
20971;BME280;10644;48.834;10.088;2024-02-23T04:15:45;94848.34;;;9.23;60.04
20971;BME280;10644;48.834;10.088;2024-02-23T04:18:12;94853.13;;;9.17;60.41
20971;BME280;10644;48.834;10.088;2024-02-23T04:20:38;94857.44;;;9.05;61.14
20971;BME280;10644;48.834;10.088;2024-02-23T04:23:03;94865.78;;;9.07;60.78
20971;BME280;10644;48.834;10.088;2024-02-23T04:25:28;94874.19;;;8.87;61.26
20971;BME280;10644;48.834;10.088;2024-02-23T04:27:54;94882.78;;;8.97;61.70
20971;BME280;10644;48.834;10.088;2024-02-23T04:30:19;94879.31;;;8.76;61.88
20971;BME280;10644;48.834;10.088;2024-02-23T04:32:45;94876.03;;;8.96;61.41
20971;BME280;10644;48.834;10.088;2024-02-23T04:35:10;94882.44;;;8.91;61.65
20971;BME280;10644;48.834;10.088;2024-02-23T04:37:35;94879.31;;;8.76;61.43
20971;BME280;10644;48.834;10.088;2024-02-23T04:40:01;94869.78;;;8.67;62.09
20971;BME280;10644;48.834;10.088;2024-02-23T04:42:26;94863.63;;;8.92;61.48
20971;BME280;10644;48.834;10.088;2024-02-23T04:44:54;94859.66;;;8.99;61.01
20971;BME280;10644;48.834;10.088;2024-02-23T04:47:20;94865.34;;;8.91;61.48
20971;BME280;10644;48.834;10.088;2024-02-23T04:49:46;94858.41;;;8.82;61.54
20971;BME280;10644;48.834;10.088;2024-02-23T04:52:29;94846.41;;;9.05;60.46
20971;BME280;10644;48.834;10.088;2024-02-23T04:54:57;94866.25;;;9.12;60.19
20971;BME280;10644;48.834;10.088;2024-02-23T04:57:22;94865.59;;;8.99;60.69
20971;BME280;10644;48.834;10.088;2024-02-23T04:59:48;94854.72;;;8.86;61.27
20971;BME280;10644;48.834;10.088;2024-02-23T05:02:13;94838.44;;;8.98;60.49
20971;BME280;10644;48.834;10.088;2024-02-23T05:04:39;94839.56;;;9.05;60.25
20971;BME280;10644;48.834;10.088;2024-02-23T05:07:05;94830.53;;;9.01;60.55
20971;BME280;10644;48.834;10.088;2024-02-23T05:09:32;94841.44;;;9.03;60.03
20971;BME280;10644;48.834;10.088;2024-02-23T05:11:58;94847.84;;;8.87;60.46
20971;BME280;10644;48.834;10.088;2024-02-23T05:14:23;94845.38;;;8.96;60.48
20971;BME280;10644;48.834;10.088;2024-02-23T05:16:48;94829.59;;;9.02;60.04
20971;BME280;10644;48.834;10.088;2024-02-23T05:19:14;94823.88;;;9.10;59.51
20971;BME280;10644;48.834;10.088;2024-02-23T05:21:39;94827.00;;;9.13;59.26
20971;BME280;10644;48.834;10.088;2024-02-23T05:24:04;94832.06;;;9.35;59.29
20971;BME280;10644;48.834;10.088;2024-02-23T05:26:31;94844.06;;;9.55;58.73
20971;BME280;10644;48.834;10.088;2024-02-23T05:28:56;94849.16;;;9.66;58.46
20971;BME280;10644;48.834;10.088;2024-02-23T05:31:45;94853.31;;;9.67;58.38
20971;BME280;10644;48.834;10.088;2024-02-23T05:34:14;94857.97;;;9.62;57.69
20971;BME280;10644;48.834;10.088;2024-02-23T05:36:42;94862.94;;;9.43;57.56
20971;BME280;10644;48.834;10.088;2024-02-23T05:39:08;94852.47;;;9.46;58.10
20971;BME280;10644;48.834;10.088;2024-02-23T05:41:35;94845.69;;;9.56;58.18
20971;BME280;10644;48.834;10.088;2024-02-23T05:44:01;94856.00;;;9.66;57.83
20971;BME280;10644;48.834;10.088;2024-02-23T05:46:32;94859.38;;;9.66;57.90
20971;BME280;10644;48.834;10.088;2024-02-23T05:48:57;94871.03;;;9.59;57.34
20971;BME280;10644;48.834;10.088;2024-02-23T05:51:23;94888.16;;;9.68;57.60
20971;BME280;10644;48.834;10.088;2024-02-23T05:53:50;94881.63;;;9.75;58.07
20971;BME280;10644;48.834;10.088;2024-02-23T05:56:16;94883.13;;;9.78;57.02
20971;BME280;10644;48.834;10.088;2024-02-23T05:58:41;94902.97;;;9.85;57.08
20971;BME280;10644;48.834;10.088;2024-02-23T06:01:06;94905.06;;;9.80;56.53
20971;BME280;10644;48.834;10.088;2024-02-23T06:03:32;94922.13;;;9.59;56.11
20971;BME280;10644;48.834;10.088;2024-02-23T06:06:00;94911.50;;;9.32;56.31
20971;BME280;10644;48.834;10.088;2024-02-23T06:08:25;94897.34;;;9.28;56.67
20971;BME280;10644;48.834;10.088;2024-02-23T06:10:51;94893.72;;;9.42;56.39
20971;BME280;10644;48.834;10.088;2024-02-23T06:13:16;94894.28;;;9.45;57.17
20971;BME280;10644;48.834;10.088;2024-02-23T06:15:41;94898.94;;;9.40;55.68
20971;BME280;10644;48.834;10.088;2024-02-23T06:18:07;94887.28;;;9.47;54.93
20971;BME280;10644;48.834;10.088;2024-02-23T06:20:32;94883.38;;;9.43;54.88
20971;BME280;10644;48.834;10.088;2024-02-23T06:22:57;94888.00;;;9.49;55.34
20971;BME280;10644;48.834;10.088;2024-02-23T06:25:23;94881.88;;;9.41;54.39
20971;BME280;10644;48.834;10.088;2024-02-23T06:27:48;94892.44;;;9.36;55.25
20971;BME280;10644;48.834;10.088;2024-02-23T06:30:14;94898.88;;;9.20;54.57
20971;BME280;10644;48.834;10.088;2024-02-23T06:32:39;94895.28;;;9.11;54.54
20971;BME280;10644;48.834;10.088;2024-02-23T06:35:05;94905.50;;;9.11;54.77
20971;BME280;10644;48.834;10.088;2024-02-23T06:37:39;94911.06;;;9.27;54.86
20971;BME280;10644;48.834;10.088;2024-02-23T06:40:05;94906.13;;;9.46;55.18
20971;BME280;10644;48.834;10.088;2024-02-23T06:42:32;94907.97;;;9.55;54.55
20971;BME280;10644;48.834;10.088;2024-02-23T06:44:58;94907.00;;;9.67;54.21
20971;BME280;10644;48.834;10.088;2024-02-23T06:47:23;94895.84;;;9.68;53.75
20971;BME280;10644;48.834;10.088;2024-02-23T06:49:57;94891.63;;;9.78;54.09
20971;BME280;10644;48.834;10.088;2024-02-23T06:52:23;94878.72;;;9.80;54.74
20971;BME280;10644;48.834;10.088;2024-02-23T06:54:50;94891.75;;;9.97;54.33
20971;BME280;10644;48.834;10.088;2024-02-23T06:57:16;94896.19;;;10.06;54.01
20971;BME280;10644;48.834;10.088;2024-02-23T06:59:41;94885.94;;;10.06;53.77
20971;BME280;10644;48.834;10.088;2024-02-23T07:02:06;94896.78;;;10.19;53.50
20971;BME280;10644;48.834;10.088;2024-02-23T07:04:32;94882.00;;;10.23;53.68
20971;BME280;10644;48.834;10.088;2024-02-23T07:06:59;94898.34;;;10.31;52.84
20971;BME280;10644;48.834;10.088;2024-02-23T07:09:24;94897.56;;;10.31;52.40
20971;BME280;10644;48.834;10.088;2024-02-23T07:11:51;94908.03;;;10.28;52.61
20971;BME280;10644;48.834;10.088;2024-02-23T07:14:19;94914.09;;;10.27;52.42
20971;BME280;10644;48.834;10.088;2024-02-23T07:16:47;94922.16;;;10.22;52.52
20971;BME280;10644;48.834;10.088;2024-02-23T07:19:12;94944.09;;;9.93;52.57
20971;BME280;10644;48.834;10.088;2024-02-23T07:21:38;94938.81;;;9.74;53.22
20971;BME280;10644;48.834;10.088;2024-02-23T07:24:03;94944.59;;;9.87;53.75
20971;BME280;10644;48.834;10.088;2024-02-23T07:26:28;94920.78;;;9.76;53.90
20971;BME280;10644;48.834;10.088;2024-02-23T07:28:55;94930.41;;;9.83;53.59
20971;BME280;10644;48.834;10.088;2024-02-23T07:31:20;94939.59;;;9.86;54.21
20971;BME280;10644;48.834;10.088;2024-02-23T07:33:45;94937.03;;;9.86;54.29
20971;BME280;10644;48.834;10.088;2024-02-23T07:36:14;94942.03;;;9.87;54.81
20971;BME280;10644;48.834;10.088;2024-02-23T07:38:45;94937.16;;;9.84;54.82
20971;BME280;10644;48.834;10.088;2024-02-23T07:41:14;94948.44;;;9.82;55.42
20971;BME280;10644;48.834;10.088;2024-02-23T07:43:40;94949.47;;;9.79;54.75
20971;BME280;10644;48.834;10.088;2024-02-23T07:46:05;94952.72;;;9.81;55.35
20971;BME280;10644;48.834;10.088;2024-02-23T07:48:34;94952.53;;;9.73;55.55
20971;BME280;10644;48.834;10.088;2024-02-23T07:50:59;94949.63;;;9.67;55.39
20971;BME280;10644;48.834;10.088;2024-02-23T07:53:24;94942.66;;;9.69;55.50
20971;BME280;10644;48.834;10.088;2024-02-23T07:55:52;94939.06;;;9.71;55.45
20971;BME280;10644;48.834;10.088;2024-02-23T07:58:20;94924.88;;;9.67;55.50
20971;BME280;10644;48.834;10.088;2024-02-23T08:00:46;94926.31;;;9.60;56.03
20971;BME280;10644;48.834;10.088;2024-02-23T08:03:11;94934.97;;;9.80;56.26
20971;BME280;10644;48.834;10.088;2024-02-23T08:05:37;94928.31;;;9.88;55.80
20971;BME280;10644;48.834;10.088;2024-02-23T08:08:05;94933.50;;;9.98;55.85
20971;BME280;10644;48.834;10.088;2024-02-23T08:10:32;94931.50;;;10.01;55.80
20971;BME280;10644;48.834;10.088;2024-02-23T08:12:58;94934.66;;;10.05;55.50
20971;BME280;10644;48.834;10.088;2024-02-23T08:15:26;94928.94;;;10.01;55.23
20971;BME280;10644;48.834;10.088;2024-02-23T08:17:51;94941.53;;;10.04;54.91
20971;BME280;10644;48.834;10.088;2024-02-23T08:20:20;94943.63;;;9.99;54.84
20971;BME280;10644;48.834;10.088;2024-02-23T08:22:46;94935.38;;;9.96;54.73
20971;BME280;10644;48.834;10.088;2024-02-23T08:25:14;94945.00;;;9.92;55.01
20971;BME280;10644;48.834;10.088;2024-02-23T08:27:42;94942.25;;;9.84;55.31
20971;BME280;10644;48.834;10.088;2024-02-23T08:30:08;94946.25;;;9.77;55.92
20971;BME280;10644;48.834;10.088;2024-02-23T08:32:33;94945.09;;;9.70;56.07
20971;BME280;10644;48.834;10.088;2024-02-23T08:34:59;94937.22;;;9.62;56.32
20971;BME280;10644;48.834;10.088;2024-02-23T08:37:30;94954.66;;;9.57;56.54
20971;BME280;10644;48.834;10.088;2024-02-23T08:39:56;94968.59;;;9.53;56.67
20971;BME280;10644;48.834;10.088;2024-02-23T08:42:21;94966.75;;;9.55;56.78
20971;BME280;10644;48.834;10.088;2024-02-23T08:44:47;94963.06;;;9.37;57.78
20971;BME280;10644;48.834;10.088;2024-02-23T08:47:13;94968.84;;;9.50;57.51
20971;BME280;10644;48.834;10.088;2024-02-23T08:49:38;94964.88;;;9.57;57.15
20971;BME280;10644;48.834;10.088;2024-02-23T08:52:04;94960.91;;;9.64;56.78
20971;BME280;10644;48.834;10.088;2024-02-23T08:54:29;94962.97;;;9.70;56.69
20971;BME280;10644;48.834;10.088;2024-02-23T08:56:55;94962.84;;;9.72;56.80
20971;BME280;10644;48.834;10.088;2024-02-23T08:59:20;94967.66;;;9.65;56.68
20971;BME280;10644;48.834;10.088;2024-02-23T09:01:46;94959.63;;;9.70;57.03
20971;BME280;10644;48.834;10.088;2024-02-23T09:04:12;94952.50;;;9.84;56.43
20971;BME280;10644;48.834;10.088;2024-02-23T09:06:38;94965.72;;;9.89;56.36
20971;BME280;10644;48.834;10.088;2024-02-23T09:09:03;94963.63;;;9.94;56.31
20971;BME280;10644;48.834;10.088;2024-02-23T09:11:28;94956.41;;;9.99;55.88
20971;BME280;10644;48.834;10.088;2024-02-23T09:13:54;94957.53;;;9.64;56.76
20971;BME280;10644;48.834;10.088;2024-02-23T09:16:19;94956.00;;;9.72;56.60
20971;BME280;10644;48.834;10.088;2024-02-23T09:18:45;94957.25;;;9.78;56.73
20971;BME280;10644;48.834;10.088;2024-02-23T09:21:11;94958.78;;;9.80;56.57
20971;BME280;10644;48.834;10.088;2024-02-23T09:23:36;94973.78;;;9.85;56.45
20971;BME280;10644;48.834;10.088;2024-02-23T09:26:08;94975.31;;;9.76;56.78
20971;BME280;10644;48.834;10.088;2024-02-23T09:28:34;94966.44;;;9.80;56.40
20971;BME280;10644;48.834;10.088;2024-02-23T09:31:01;94974.09;;;9.80;56.57
20971;BME280;10644;48.834;10.088;2024-02-23T09:33:28;94974.81;;;9.82;56.55
20971;BME280;10644;48.834;10.088;2024-02-23T09:35:54;94982.69;;;9.90;56.46
20971;BME280;10644;48.834;10.088;2024-02-23T09:38:19;94969.22;;;9.88;56.58
20971;BME280;10644;48.834;10.088;2024-02-23T09:40:45;94966.84;;;9.96;56.48
20971;BME280;10644;48.834;10.088;2024-02-23T09:43:12;94980.59;;;9.95;56.82
20971;BME280;10644;48.834;10.088;2024-02-23T09:45:37;94974.34;;;9.88;56.62
20971;BME280;10644;48.834;10.088;2024-02-23T09:48:07;94977.34;;;9.93;56.17
20971;BME280;10644;48.834;10.088;2024-02-23T09:50:32;94982.88;;;9.98;56.03
20971;BME280;10644;48.834;10.088;2024-02-23T09:52:58;94975.19;;;10.09;55.59
20971;BME280;10644;48.834;10.088;2024-02-23T09:55:24;94977.03;;;10.18;55.89
20971;BME280;10644;48.834;10.088;2024-02-23T09:57:52;94990.28;;;10.23;55.67
20971;BME280;10644;48.834;10.088;2024-02-23T10:00:23;94989.09;;;10.27;55.87
20971;BME280;10644;48.834;10.088;2024-02-23T10:02:48;94996.84;;;10.37;56.41
20971;BME280;10644;48.834;10.088;2024-02-23T10:05:16;94980.94;;;10.33;54.90
20971;BME280;10644;48.834;10.088;2024-02-23T10:07:42;94985.28;;;10.22;55.10
20971;BME280;10644;48.834;10.088;2024-02-23T10:10:09;94992.38;;;10.18;55.43
20971;BME280;10644;48.834;10.088;2024-02-23T10:12:36;95002.84;;;10.15;54.55
20971;BME280;10644;48.834;10.088;2024-02-23T10:15:02;95002.09;;;9.93;54.26
20971;BME280;10644;48.834;10.088;2024-02-23T10:17:30;95010.69;;;9.92;54.94
20971;BME280;10644;48.834;10.088;2024-02-23T10:19:59;95008.59;;;9.97;55.38
20971;BME280;10644;48.834;10.088;2024-02-23T10:22:30;95013.47;;;10.00;55.38
20971;BME280;10644;48.834;10.088;2024-02-23T10:24:56;95011.72;;;10.00;55.45
20971;BME280;10644;48.834;10.088;2024-02-23T10:27:23;95017.19;;;10.07;55.29
20971;BME280;10644;48.834;10.088;2024-02-23T10:29:51;95011.38;;;10.05;55.29
20971;BME280;10644;48.834;10.088;2024-02-23T10:32:18;95001.25;;;9.92;54.91
20971;BME280;10644;48.834;10.088;2024-02-23T10:34:47;95005.47;;;10.04;55.60
20971;BME280;10644;48.834;10.088;2024-02-23T10:37:16;95017.06;;;10.08;54.86
20971;BME280;10644;48.834;10.088;2024-02-23T10:39:42;95017.53;;;10.02;54.94
20971;BME280;10644;48.834;10.088;2024-02-23T10:42:09;95012.88;;;10.07;55.38
20971;BME280;10644;48.834;10.088;2024-02-23T10:44:37;95011.00;;;9.98;54.23
20971;BME280;10644;48.834;10.088;2024-02-23T10:47:04;95006.16;;;9.95;54.37
20971;BME280;10644;48.834;10.088;2024-02-23T10:49:31;94993.00;;;10.00;54.17
20971;BME280;10644;48.834;10.088;2024-02-23T10:51:56;95002.44;;;10.10;54.29
20971;BME280;10644;48.834;10.088;2024-02-23T10:54:22;94998.34;;;10.19;54.42
20971;BME280;10644;48.834;10.088;2024-02-23T10:56:49;94997.00;;;10.24;53.64
20971;BME280;10644;48.834;10.088;2024-02-23T10:59:14;94994.72;;;10.21;53.95
20971;BME280;10644;48.834;10.088;2024-02-23T11:01:46;94998.44;;;10.17;53.42
20971;BME280;10644;48.834;10.088;2024-02-23T11:04:15;95003.34;;;10.09;53.58
20971;BME280;10644;48.834;10.088;2024-02-23T11:06:41;95004.06;;;10.00;54.03
20971;BME280;10644;48.834;10.088;2024-02-23T11:09:07;95003.34;;;10.09;53.82
20971;BME280;10644;48.834;10.088;2024-02-23T11:11:34;94993.94;;;10.10;54.01
20971;BME280;10644;48.834;10.088;2024-02-23T11:14:08;95000.56;;;10.12;54.36
20971;BME280;10644;48.834;10.088;2024-02-23T11:16:38;94990.13;;;10.04;54.57
20971;BME280;10644;48.834;10.088;2024-02-23T11:19:07;94984.75;;;10.07;54.27
20971;BME280;10644;48.834;10.088;2024-02-23T11:21:35;94988.25;;;10.06;53.78
20971;BME280;10644;48.834;10.088;2024-02-23T11:24:04;94987.81;;;9.90;53.67
20971;BME280;10644;48.834;10.088;2024-02-23T11:26:30;94987.56;;;10.04;53.48
20971;BME280;10644;48.834;10.088;2024-02-23T11:28:58;95002.00;;;9.83;53.53
20971;BME280;10644;48.834;10.088;2024-02-23T11:31:25;94997.09;;;9.91;54.20
20971;BME280;10644;48.834;10.088;2024-02-23T11:33:55;95001.16;;;9.94;53.71
20971;BME280;10644;48.834;10.088;2024-02-23T11:38:54;94994.41;;;10.04;53.88
20971;BME280;10644;48.834;10.088;2024-02-23T11:41:23;95000.56;;;10.01;52.93
20971;BME280;10644;48.834;10.088;2024-02-23T11:43:50;94991.25;;;10.11;52.97
20971;BME280;10644;48.834;10.088;2024-02-23T11:46:19;94990.78;;;10.17;53.10
20971;BME280;10644;48.834;10.088;2024-02-23T11:48:45;94975.91;;;10.11;52.25
20971;BME280;10644;48.834;10.088;2024-02-23T11:51:13;94977.53;;;10.12;53.03
20971;BME280;10644;48.834;10.088;2024-02-23T11:53:38;95000.75;;;10.20;53.19
20971;BME280;10644;48.834;10.088;2024-02-23T11:56:05;95006.59;;;10.11;52.29
20971;BME280;10644;48.834;10.088;2024-02-23T11:58:33;94994.75;;;10.10;52.37
20971;BME280;10644;48.834;10.088;2024-02-23T12:01:02;94994.00;;;10.19;52.55
20971;BME280;10644;48.834;10.088;2024-02-23T12:03:29;94991.00;;;10.14;52.75
20971;BME280;10644;48.834;10.088;2024-02-23T12:05:57;94978.47;;;10.11;52.53
20971;BME280;10644;48.834;10.088;2024-02-23T12:08:26;94984.03;;;10.16;52.46
20971;BME280;10644;48.834;10.088;2024-02-23T12:10:56;94979.59;;;10.18;52.82
20971;BME280;10644;48.834;10.088;2024-02-23T12:13:22;94982.84;;;10.20;52.63
20971;BME280;10644;48.834;10.088;2024-02-23T12:15:48;94964.28;;;10.07;53.46
20971;BME280;10644;48.834;10.088;2024-02-23T12:18:14;94956.41;;;10.31;52.70
20971;BME280;10644;48.834;10.088;2024-02-23T12:20:47;94956.34;;;10.42;52.36
20971;BME280;10644;48.834;10.088;2024-02-23T12:23:12;94955.22;;;10.55;51.72
20971;BME280;10644;48.834;10.088;2024-02-23T12:25:38;94962.41;;;10.61;51.32
20971;BME280;10644;48.834;10.088;2024-02-23T12:28:04;94949.53;;;10.52;50.75
20971;BME280;10644;48.834;10.088;2024-02-23T12:30:30;94953.59;;;10.54;52.84
20971;BME280;10644;48.834;10.088;2024-02-23T12:33:03;94958.84;;;10.73;52.09
20971;BME280;10644;48.834;10.088;2024-02-23T12:35:29;94948.28;;;10.67;50.21
20971;BME280;10644;48.834;10.088;2024-02-23T12:37:54;94952.34;;;10.69;50.03
20971;BME280;10644;48.834;10.088;2024-02-23T12:40:20;94953.06;;;10.60;50.87
20971;BME280;10644;48.834;10.088;2024-02-23T12:42:45;94954.72;;;10.61;51.07
20971;BME280;10644;48.834;10.088;2024-02-23T12:45:13;94965.25;;;10.47;51.03
20971;BME280;10644;48.834;10.088;2024-02-23T12:47:39;94959.66;;;10.53;51.04
20971;BME280;10644;48.834;10.088;2024-02-23T12:50:05;94959.34;;;10.47;51.57
20971;BME280;10644;48.834;10.088;2024-02-23T12:52:31;94947.84;;;10.41;50.97
20971;BME280;10644;48.834;10.088;2024-02-23T12:54:56;94949.19;;;10.36;50.35